Time;durP1;ratioP1;P1;durP2;ratioP2;P2;SDS_P1;SDS_P2;PMS_P1;PMS_P2;Temp;Humidity;BMP_temperature;BMP_pressure;BME280_temperature;BME280_humidity;BME280_pressure;Samples;Min_cycle;Max_cycle;Signal;HPM_P1;HPM_P2
2022/11/25 00:01:18;;;;;;;280.50;121.45;;;2.20;99.90;;;;;;5070150;28;20053;-58
2022/11/25 00:03:44;;;;;;;296.47;126.73;;;2.20;99.90;;;;;;5057004;28;20033;-66
2022/11/25 00:06:25;;;;;;;292.93;121.13;;;2.20;99.90;;;;;;5070311;28;20028;-62
2022/11/25 00:08:54;;;;;;;312.70;131.00;;;2.20;99.90;;;;;;5069910;28;20024;-65
2022/11/25 00:11:20;;;;;;;311.70;136.57;;;2.20;99.90;;;;;;5051735;28;20150;-64
2022/11/25 00:13:47;;;;;;;343.73;142.23;;;2.20;99.90;;;;;;5069882;28;20111;-62
2022/11/25 00:16:15;;;;;;;337.63;143.98;;;2.20;99.90;;;;;;5069991;28;20037;-58
2022/11/25 00:18:49;;;;;;;352.73;146.10;;;2.20;99.90;;;;;;5069792;28;20525;-65
2022/11/25 00:21:18;;;;;;;362.33;151.75;;;2.20;99.90;;;;;;5069828;28;20036;-61
2022/11/25 00:23:44;;;;;;;357.52;153.13;;;2.20;99.90;;;;;;5051932;28;20021;-58
2022/11/25 00:26:12;;;;;;;355.03;158.60;;;2.20;99.90;;;;;;5035567;28;20538;-66
2022/11/25 00:28:39;;;;;;;361.83;157.93;;;2.20;99.90;;;;;;5051922;28;20031;-63
2022/11/25 00:31:11;;;;;;;355.60;156.75;;;2.20;99.90;;;;;;5069950;28;20029;-56
2022/11/25 00:33:38;;;;;;;357.50;157.40;;;2.30;99.90;;;;;;5069913;28;20120;-64
2022/11/25 00:36:05;;;;;;;348.30;152.43;;;2.20;99.90;;;;;;5059176;28;20060;-64
2022/11/25 00:38:31;;;;;;;352.60;151.55;;;2.20;99.90;;;;;;5031623;28;20280;-66
2022/11/25 00:46:25;;;;;;;336.38;145.25;;;2.30;99.90;;;;;;5049646;28;20174;-60
2022/11/25 00:48:51;;;;;;;327.60;149.43;;;2.30;99.90;;;;;;5049927;28;20505;-62
2022/11/25 00:51:17;;;;;;;344.33;147.88;;;2.30;99.90;;;;;;5049533;28;20024;-64
2022/11/25 00:53:42;;;;;;;328.08;142.57;;;2.30;99.90;;;;;;5049598;28;20029;-61
2022/11/25 00:56:14;;;;;;;321.27;142.98;;;2.30;99.90;;;;;;5049391;28;20163;-61
2022/11/25 00:58:41;;;;;;;313.10;140.10;;;2.30;99.90;;;;;;5031311;28;20027;-58
2022/11/25 01:01:08;;;;;;;330.38;139.65;;;2.40;99.90;;;;;;5031677;28;20104;-62
2022/11/25 01:03:36;;;;;;;333.77;141.88;;;2.50;99.90;;;;;;5049454;28;20033;-59
2022/11/25 01:06:03;;;;;;;298.88;134.88;;;2.50;99.90;;;;;;5049496;28;20122;-59
2022/11/25 01:08:30;;;;;;;301.15;135.95;;;2.50;99.90;;;;;;5049444;28;20025;-60
2022/11/25 01:11:05;;;;;;;308.55;134.95;;;2.60;99.90;;;;;;5049214;28;20017;-61
2022/11/25 01:13:31;;;;;;;307.70;133.20;;;2.60;99.90;;;;;;5049267;28;20033;-58
2022/11/25 01:15:56;;;;;;;290.10;133.32;;;2.60;99.90;;;;;;5049152;28;20037;-58
2022/11/25 01:18:22;;;;;;;303.92;133.15;;;2.60;99.90;;;;;;5049282;28;20029;-58
2022/11/25 01:20:48;;;;;;;309.60;137.52;;;2.70;99.90;;;;;;5049176;28;20025;-58
2022/11/25 01:23:13;;;;;;;316.50;141.27;;;2.70;99.90;;;;;;5053008;28;20021;-62
2022/11/25 01:25:39;;;;;;;301.30;134.00;;;2.70;99.90;;;;;;5052825;28;20075;-65
2022/11/25 01:28:05;;;;;;;303.25;139.27;;;2.70;99.90;;;;;;5053241;28;20079;-66
2022/11/25 01:30:31;;;;;;;300.17;133.75;;;2.80;99.90;;;;;;5052909;28;20040;-60
2022/11/25 01:32:57;;;;;;;301.65;138.90;;;2.80;99.90;;;;;;5072856;28;20029;-63
2022/11/25 01:35:23;;;;;;;297.77;133.57;;;2.80;99.90;;;;;;5051231;28;20049;-57
2022/11/25 01:37:48;;;;;;;295.00;135.20;;;2.70;99.90;;;;;;5052349;28;20480;-59
2022/11/25 01:40:14;;;;;;;298.88;131.18;;;2.70;99.90;;;;;;5052739;28;20021;-64
2022/11/25 01:42:46;;;;;;;300.30;138.85;;;2.70;99.90;;;;;;5052445;28;20036;-64
2022/11/25 01:45:34;;;;;;;296.23;137.10;;;2.70;99.90;;;;;;5052549;28;20622;-63
2022/11/25 01:48:07;;;;;;;303.00;133.90;;;2.80;99.90;;;;;;5052585;28;20075;-59
2022/11/25 01:50:34;;;;;;;294.13;133.40;;;2.80;99.90;;;;;;5052506;28;20079;-60
2022/11/25 01:53:05;;;;;;;312.02;139.40;;;2.90;99.90;;;;;;5051064;28;20028;-63
2022/11/25 01:55:34;;;;;;;301.95;136.50;;;2.90;99.90;;;;;;5052338;28;20037;-61
2022/11/25 01:58:07;;;;;;;299.92;134.32;;;2.90;99.90;;;;;;5052266;28;20048;-58
2022/11/25 02:00:33;;;;;;;291.10;134.70;;;2.90;99.90;;;;;;5050956;28;20067;-60
2022/11/25 02:02:59;;;;;;;297.10;135.00;;;2.90;99.90;;;;;;5052243;28;20025;-61
2022/11/25 02:05:49;;;;;;;292.90;134.67;;;2.90;99.90;;;;;;5052270;28;20040;-57
2022/11/25 02:08:16;;;;;;;285.65;129.85;;;2.90;99.90;;;;;;5052072;28;20407;-62
2022/11/25 02:10:43;;;;;;;301.23;135.80;;;2.90;99.90;;;;;;5051939;28;20091;-62
2022/11/25 02:13:10;;;;;;;283.23;131.13;;;3.00;99.90;;;;;;5052346;28;20025;-58
2022/11/25 02:15:35;;;;;;;303.02;135.18;;;3.00;99.90;;;;;;5059596;28;20024;-60
2022/11/25 02:18:02;;;;;;;299.98;135.52;;;3.00;99.90;;;;;;5060497;28;20036;-63
2022/11/25 02:20:27;;;;;;;297.08;137.77;;;3.10;99.90;;;;;;5060321;28;20483;-58
2022/11/25 02:22:56;;;;;;;300.55;139.88;;;3.10;99.90;;;;;;5058668;28;20052;-61
2022/11/25 02:25:29;;;;;;;308.10;138.27;;;3.10;99.90;;;;;;5057402;28;20112;-58
2022/11/25 02:28:00;;;;;;;294.58;135.40;;;3.10;99.90;;;;;;5060385;28;20052;-66
2022/11/25 02:30:26;;;;;;;312.60;136.93;;;3.10;99.90;;;;;;5056059;28;20074;-58
2022/11/25 02:32:52;;;;;;;296.73;137.98;;;3.00;99.90;;;;;;5051462;28;20443;-58
2022/11/25 02:35:31;;;;;;;306.95;134.80;;;3.10;99.90;;;;;;5065596;28;20064;-61
2022/11/25 02:38:28;;;;;;;294.83;134.85;;;3.00;99.90;;;;;;5077396;28;20025;-60
2022/11/25 02:41:02;;;;;;;300.92;137.77;;;3.00;99.90;;;;;;5081567;28;20478;-58
2022/11/25 02:43:28;;;;;;;295.00;134.15;;;3.00;99.90;;;;;;5072238;28;20443;-63
2022/11/25 02:46:08;;;;;;;297.02;132.45;;;3.00;99.90;;;;;;5069750;28;20122;-63
2022/11/25 02:48:37;;;;;;;290.67;132.82;;;3.00;99.90;;;;;;5069111;28;20037;-58
2022/11/25 02:51:03;;;;;;;312.67;136.73;;;3.00;99.90;;;;;;5069287;28;20035;-63
2022/11/25 02:53:29;;;;;;;292.42;133.23;;;3.10;99.90;;;;;;5071280;28;20353;-62
2022/11/25 02:55:55;;;;;;;327.45;141.95;;;3.10;99.90;;;;;;5058667;28;20111;-60
2022/11/25 02:58:21;;;;;;;309.35;136.18;;;3.00;99.90;;;;;;5070704;28;20025;-59
2022/11/25 03:00:47;;;;;;;306.00;138.07;;;3.10;99.90;;;;;;5071679;28;20095;-58
2022/11/25 03:03:12;;;;;;;299.10;132.45;;;3.10;99.90;;;;;;5070495;28;20468;-58
2022/11/25 03:05:38;;;;;;;305.67;134.70;;;3.20;99.90;;;;;;5070615;28;20031;-57
2022/11/25 03:08:05;;;;;;;305.05;131.15;;;3.10;99.90;;;;;;5069949;28;20082;-59
2022/11/25 03:10:31;;;;;;;292.33;133.10;;;3.20;99.90;;;;;;5069239;28;20056;-57
2022/11/25 03:12:57;;;;;;;303.33;131.48;;;3.20;99.90;;;;;;5068881;28;20056;-59
2022/11/25 03:15:22;;;;;;;309.92;132.90;;;3.20;99.90;;;;;;5068946;28;20067;-62
2022/11/25 03:17:48;;;;;;;280.98;126.05;;;3.20;99.90;;;;;;5068990;28;20103;-59
2022/11/25 03:20:14;;;;;;;285.13;129.65;;;3.20;99.90;;;;;;5069439;28;20102;-60
2022/11/25 03:22:41;;;;;;;273.45;126.13;;;3.30;99.90;;;;;;5069662;28;20105;-65
2022/11/25 03:25:08;;;;;;;276.65;122.15;;;3.20;99.90;;;;;;5071020;28;20213;-63
2022/11/25 03:27:34;;;;;;;278.40;125.32;;;3.30;99.90;;;;;;5070990;28;20027;-61
2022/11/25 03:30:00;;;;;;;276.07;123.80;;;3.30;99.90;;;;;;5052825;28;20035;-57
2022/11/25 03:32:26;;;;;;;261.60;122.68;;;3.30;99.90;;;;;;5071009;28;20117;-57
2022/11/25 03:34:51;;;;;;;268.30;120.93;;;3.30;99.90;;;;;;5052677;28;20127;-60
2022/11/25 03:37:18;;;;;;;255.93;117.53;;;3.30;99.90;;;;;;5070849;28;20647;-62
2022/11/25 03:39:44;;;;;;;280.40;120.83;;;3.30;99.90;;;;;;5070697;28;20078;-57
2022/11/25 03:42:10;;;;;;;266.30;117.60;;;3.40;99.90;;;;;;5070428;28;20104;-60
2022/11/25 03:44:35;;;;;;;267.35;119.47;;;3.40;99.90;;;;;;5070207;28;20100;-58
2022/11/25 03:47:01;;;;;;;259.33;118.82;;;3.40;99.90;;;;;;5070671;28;20064;-59
2022/11/25 03:49:26;;;;;;;251.23;118.63;;;3.40;99.90;;;;;;5070755;28;20025;-62
2022/11/25 03:51:52;;;;;;;258.75;119.03;;;3.40;99.90;;;;;;5070783;28;20021;-63
2022/11/25 03:54:18;;;;;;;259.77;118.40;;;3.40;99.90;;;;;;5068904;28;20331;-65
2022/11/25 03:56:43;;;;;;;258.70;118.25;;;3.30;99.90;;;;;;5070440;28;20041;-58
2022/11/25 03:59:09;;;;;;;250.95;118.40;;;3.40;99.90;;;;;;5070609;28;20024;-59
2022/11/25 04:01:35;;;;;;;266.67;121.82;;;3.40;99.90;;;;;;5068804;28;20078;-61
2022/11/25 04:04:00;;;;;;;253.95;115.53;;;3.40;99.90;;;;;;5069935;28;20532;-63
2022/11/25 04:06:26;;;;;;;259.17;117.03;;;3.40;99.90;;;;;;5070328;28;20025;-60
2022/11/25 04:08:52;;;;;;;259.83;116.30;;;3.40;99.90;;;;;;5070387;28;20468;-58
2022/11/25 04:11:17;;;;;;;254.70;118.10;;;3.40;99.90;;;;;;5070385;28;20024;-59
2022/11/25 04:13:43;;;;;;;252.20;119.32;;;3.40;99.90;;;;;;5070441;28;20052;-62
2022/11/25 04:16:23;;;;;;;270.38;126.18;;;3.40;99.90;;;;;;5070296;28;20055;-63
2022/11/25 04:18:48;;;;;;;279.77;130.18;;;3.40;99.90;;;;;;5070610;28;20020;-58
2022/11/25 04:21:14;;;;;;;268.90;126.57;;;3.30;99.90;;;;;;5070014;28;20025;-57
2022/11/25 04:23:40;;;;;;;269.90;126.20;;;3.30;99.90;;;;;;5070054;28;20597;-60
2022/11/25 04:26:05;;;;;;;280.10;127.57;;;3.40;99.90;;;;;;5069915;28;20434;-62
2022/11/25 04:28:31;;;;;;;261.55;123.80;;;3.30;99.90;;;;;;5070159;28;20032;-60
2022/11/25 04:30:56;;;;;;;268.65;126.68;;;3.40;99.90;;;;;;5070025;28;20085;-59
2022/11/25 04:33:22;;;;;;;280.25;130.05;;;3.40;99.90;;;;;;5070025;28;20555;-62
2022/11/25 04:35:48;;;;;;;287.38;130.85;;;3.40;99.90;;;;;;5069854;28;20052;-60
2022/11/25 04:38:13;;;;;;;278.90;128.60;;;3.40;99.90;;;;;;5070003;28;20024;-59
2022/11/25 04:40:39;;;;;;;277.52;125.65;;;3.40;99.90;;;;;;5069740;28;20033;-56
2022/11/25 04:43:04;;;;;;;269.70;126.82;;;3.40;99.90;;;;;;5069885;28;20032;-59
2022/11/25 04:45:30;;;;;;;266.80;124.20;;;3.40;99.90;;;;;;5069429;28;20028;-63
2022/11/25 04:47:56;;;;;;;265.63;124.70;;;3.40;99.90;;;;;;5069843;28;20186;-62
2022/11/25 04:50:22;;;;;;;263.95;123.10;;;3.40;99.90;;;;;;5069600;28;20541;-59
2022/11/25 04:52:48;;;;;;;251.45;115.13;;;3.40;99.90;;;;;;5069717;28;20074;-57
2022/11/25 04:55:14;;;;;;;251.02;118.82;;;3.40;99.90;;;;;;5069596;28;20033;-58
2022/11/25 04:57:40;;;;;;;249.60;116.30;;;3.50;99.90;;;;;;5072873;28;20544;-58
2022/11/25 05:00:07;;;;;;;244.98;112.40;;;3.50;99.90;;;;;;5073781;28;20047;-59
2022/11/25 05:02:32;;;;;;;238.07;110.00;;;3.50;99.90;;;;;;5073897;28;20048;-62
2022/11/25 05:04:58;;;;;;;247.80;108.78;;;3.50;99.90;;;;;;5055566;28;20483;-65
2022/11/25 05:07:26;;;;;;;250.23;110.60;;;3.40;99.90;;;;;;5073573;28;20029;-62
2022/11/25 05:09:52;;;;;;;229.27;105.70;;;3.50;99.90;;;;;;5073333;28;20077;-62
2022/11/25 05:12:21;;;;;;;223.13;106.35;;;3.50;99.90;;;;;;5073455;28;20055;-65
2022/11/25 05:14:47;;;;;;;229.30;104.32;;;3.50;99.90;;;;;;5073169;28;20075;-57
2022/11/25 05:17:33;;;;;;;230.45;107.70;;;3.50;99.90;;;;;;5073338;28;20052;-61
2022/11/25 05:19:58;;;;;;;227.10;101.85;;;3.50;99.90;;;;;;5072249;28;20035;-61
2022/11/25 05:22:27;;;;;;;218.85;98.55;;;3.60;99.90;;;;;;5073202;28;20036;-70
2022/11/25 05:24:54;;;;;;;223.18;99.53;;;3.60;99.90;;;;;;5054907;28;20379;-62
2022/11/25 05:27:20;;;;;;;238.37;104.07;;;3.60;99.90;;;;;;5072834;28;20033;-65
2022/11/25 05:29:47;;;;;;;236.27;103.05;;;3.60;99.90;;;;;;5073085;28;20020;-58
2022/11/25 05:32:13;;;;;;;225.53;104.53;;;3.60;99.90;;;;;;5072957;28;20110;-63
2022/11/25 05:34:39;;;;;;;223.77;99.85;;;3.60;99.90;;;;;;5072707;28;20052;-61
2022/11/25 05:37:06;;;;;;;205.60;97.13;;;3.60;99.90;;;;;;5072972;28;20021;-63
2022/11/25 05:39:31;;;;;;;216.85;98.45;;;3.60;99.90;;;;;;5073503;28;20028;-57
2022/11/25 05:41:57;;;;;;;209.98;100.97;;;3.70;99.90;;;;;;5073351;28;20830;-58
2022/11/25 05:44:23;;;;;;;195.82;94.97;;;3.70;99.90;;;;;;5072977;28;20025;-60
2022/11/25 05:46:49;;;;;;;210.30;99.35;;;3.60;99.90;;;;;;5070520;28;20029;-60
2022/11/25 05:49:15;;;;;;;234.23;106.13;;;3.60;99.90;;;;;;5072720;28;20052;-60
2022/11/25 05:51:41;;;;;;;207.13;97.07;;;3.60;99.90;;;;;;5072862;28;20028;-63
2022/11/25 05:54:07;;;;;;;213.85;98.03;;;3.70;99.90;;;;;;5072717;28;20502;-59
2022/11/25 05:56:32;;;;;;;198.70;90.82;;;3.70;99.90;;;;;;5073168;28;20032;-57
2022/11/25 05:58:59;;;;;;;188.93;89.97;;;3.70;99.90;;;;;;5072588;28;20078;-59
2022/11/25 06:01:25;;;;;;;193.80;89.00;;;3.70;99.90;;;;;;5072727;28;20051;-61
2022/11/25 06:03:51;;;;;;;200.90;96.10;;;3.70;99.90;;;;;;5072636;28;20471;-65
2022/11/25 06:06:16;;;;;;;213.27;99.57;;;3.80;99.90;;;;;;5072431;28;20024;-60
2022/11/25 06:08:43;;;;;;;235.43;111.68;;;3.80;99.90;;;;;;5071826;28;20074;-62
2022/11/25 06:11:11;;;;;;;239.50;115.30;;;3.70;99.90;;;;;;5072417;28;20030;-61
2022/11/25 06:13:38;;;;;;;259.30;119.82;;;3.60;99.90;;;;;;5072244;28;20033;-57
2022/11/25 06:16:16;;;;;;;271.27;123.93;;;3.60;99.90;;;;;;5072267;28;20541;-67
2022/11/25 06:18:42;;;;;;;257.10;121.03;;;3.50;99.90;;;;;;5072067;28;20040;-58
2022/11/25 06:21:09;;;;;;;247.40;121.28;;;3.50;99.90;;;;;;5072038;28;20028;-59
2022/11/25 06:23:36;;;;;;;240.55;118.93;;;3.50;99.90;;;;;;5072152;28;20521;-65
2022/11/25 06:26:18;;;;;;;224.50;105.03;;;3.60;99.90;;;;;;5070918;28;20446;-63
2022/11/25 06:28:44;;;;;;;220.85;101.43;;;3.60;99.90;;;;;;5072119;28;20024;-62
2022/11/25 06:31:15;;;;;;;227.35;104.80;;;3.60;99.90;;;;;;5072046;28;20025;-58
2022/11/25 06:33:42;;;;;;;211.77;99.07;;;3.70;99.90;;;;;;5071905;28;20025;-63
2022/11/25 06:36:15;;;;;;;209.33;94.87;;;3.70;99.90;;;;;;5071798;28;20095;-56
2022/11/25 06:38:48;;;;;;;206.68;90.32;;;3.70;99.90;;;;;;5071953;28;20270;-58
2022/11/25 06:41:15;;;;;;;208.43;97.15;;;3.70;99.90;;;;;;5071994;28;20093;-58
2022/11/25 06:43:40;;;;;;;214.40;97.23;;;3.70;99.90;;;;;;5071773;28;20096;-63
2022/11/25 06:46:14;;;;;;;222.57;100.50;;;3.70;99.90;;;;;;5071862;28;20716;-59
2022/11/25 06:48:41;;;;;;;222.32;101.88;;;3.70;99.90;;;;;;5071395;28;20090;-60
2022/11/25 06:51:09;;;;;;;244.90;107.32;;;3.80;99.90;;;;;;5071235;28;20063;-65
2022/11/25 06:53:36;;;;;;;249.00;111.10;;;3.80;99.90;;;;;;5071406;28;20045;-63
2022/11/25 06:56:20;;;;;;;242.43;110.57;;;3.80;99.90;;;;;;5071386;28;20044;-64
2022/11/25 06:58:47;;;;;;;234.18;108.10;;;3.90;99.90;;;;;;5071351;28;20278;-61
2022/11/25 07:01:13;;;;;;;231.15;109.80;;;3.90;99.90;;;;;;5071374;28;20028;-57
2022/11/25 07:03:39;;;;;;;216.45;102.40;;;3.90;99.90;;;;;;5071284;28;20093;-57
2022/11/25 07:06:05;;;;;;;212.95;101.55;;;4.00;99.90;;;;;;5071570;28;20029;-63
2022/11/25 07:08:31;;;;;;;225.32;102.38;;;4.00;99.90;;;;;;5070993;28;20519;-64
2022/11/25 07:11:16;;;;;;;232.30;104.90;;;4.00;99.90;;;;;;5071330;28;20059;-59
2022/11/25 07:13:42;;;;;;;230.98;101.35;;;4.00;99.90;;;;;;5071160;28;20035;-62
2022/11/25 07:16:10;;;;;;;233.93;103.30;;;3.90;99.90;;;;;;5071015;28;20377;-61
2022/11/25 07:18:38;;;;;;;221.35;102.28;;;3.90;99.90;;;;;;5070221;28;20029;-64
2022/11/25 07:21:05;;;;;;;;;;;3.90;99.90;;;;;;5071320;28;20063;-59
2022/11/25 07:23:32;;;;;;;206.17;91.47;;;4.00;99.90;;;;;;5071065;28;19905;-60
2022/11/25 07:26:25;;;;;;;206.55;90.68;;;4.00;99.90;;;;;;5070940;28;20024;-64
2022/11/25 07:28:53;;;;;;;204.20;91.35;;;4.10;99.90;;;;;;5070116;28;20248;-61
2022/11/25 07:31:20;;;;;;;;;;;4.10;99.90;;;;;;5071504;28;20401;-60
2022/11/25 07:33:46;;;;;;;193.77;86.00;;;4.10;99.90;;;;;;5070772;28;19929;-59
2022/11/25 07:36:13;;;;;;;184.30;85.55;;;4.10;99.90;;;;;;5070826;28;20113;-64
2022/11/25 07:38:40;;;;;;;197.77;84.10;;;4.20;99.90;;;;;;5070666;28;20182;-59
2022/11/25 07:41:07;;;;;;;171.05;76.30;;;4.10;99.90;;;;;;5070853;28;20024;-61
2022/11/25 07:43:33;;;;;;;;;;;4.20;99.90;;;;;;5071199;28;20491;-58
2022/11/25 07:46:12;;;;;;;172.00;73.32;;;4.10;99.90;;;;;;5070299;28;19909;-58
2022/11/25 07:48:38;;;;;;;167.38;77.68;;;4.10;99.90;;;;;;5070772;28;20021;-57
2022/11/25 07:51:04;;;;;;;168.83;81.13;;;4.10;99.90;;;;;;5070410;28;20598;-63
2022/11/25 07:53:30;;;;;;;162.75;73.18;;;4.20;99.90;;;;;;5070498;28;20028;-66
2022/11/25 07:56:00;;;;;;;150.13;72.28;;;4.20;99.90;;;;;;5070198;28;20043;-57
2022/11/25 07:58:25;;;;;;;155.75;70.50;;;4.20;99.90;;;;;;5070473;28;20117;-60
2022/11/25 08:00:51;;;;;;;154.75;73.65;;;4.30;99.90;;;;;;5070247;28;20079;-58
2022/11/25 08:03:16;;;;;;;155.80;70.80;;;4.30;99.90;;;;;;5070163;28;20495;-56
2022/11/25 08:05:42;;;;;;;161.35;69.82;;;4.30;99.90;;;;;;5070078;28;20047;-61
2022/11/25 08:08:07;;;;;;;142.95;65.50;;;4.30;99.90;;;;;;5070162;28;20028;-64
2022/11/25 08:10:33;;;;;;;152.90;70.28;;;4.30;99.90;;;;;;5070026;28;20108;-62
2022/11/25 08:12:59;;;;;;;152.10;69.25;;;4.30;99.90;;;;;;5070042;28;20108;-61
2022/11/25 08:15:25;;;;;;;137.27;64.72;;;4.30;99.90;;;;;;5068865;28;20046;-61
2022/11/25 08:17:51;;;;;;;133.73;64.97;;;4.40;99.90;;;;;;5070071;28;20025;-66
2022/11/25 08:20:17;;;;;;;141.30;63.25;;;4.40;99.90;;;;;;5069860;28;20028;-63
2022/11/25 08:22:43;;;;;;;130.38;62.55;;;4.40;99.90;;;;;;5070170;28;20027;-61
2022/11/25 08:25:08;;;;;;;122.60;57.08;;;4.50;99.90;;;;;;5069986;28;20372;-60
2022/11/25 08:27:34;;;;;;;138.52;66.03;;;4.50;99.90;;;;;;5070140;28;20056;-60
2022/11/25 08:30:00;;;;;;;142.50;66.75;;;4.50;99.90;;;;;;5069852;28;20036;-59
2022/11/25 08:32:25;;;;;;;135.55;63.78;;;4.50;99.90;;;;;;5070234;28;20021;-63
2022/11/25 08:34:51;;;;;;;125.65;60.50;;;4.50;99.90;;;;;;5069098;28;20044;-65
2022/11/25 08:37:17;;;;;;;121.07;59.42;;;4.60;99.90;;;;;;5069594;28;20112;-57
2022/11/25 08:39:42;;;;;;;115.28;58.30;;;4.70;99.90;;;;;;5070020;28;20608;-56
2022/11/25 08:42:08;;;;;;;119.55;56.55;;;4.60;99.90;;;;;;5068655;28;20560;-58
2022/11/25 08:44:34;;;;;;;108.32;54.15;;;4.60;99.90;;;;;;5070089;28;20020;-57
2022/11/25 08:47:00;;;;;;;109.97;51.35;;;4.60;99.90;;;;;;5069647;28;20029;-57
2022/11/25 08:49:28;;;;;;;109.80;53.53;;;4.60;99.90;;;;;;5051902;28;20029;-59
2022/11/25 08:51:53;;;;;;;114.80;51.83;;;4.60;99.90;;;;;;5070127;28;20453;-58
2022/11/25 08:54:19;;;;;;;104.88;51.47;;;4.70;99.90;;;;;;5069058;28;20523;-60
2022/11/25 08:56:45;;;;;;;118.93;49.75;;;4.70;99.90;;;;;;5069755;28;20040;-61
2022/11/25 08:59:10;;;;;;;104.93;51.10;;;4.70;99.90;;;;;;5069557;28;20154;-65
2022/11/25 09:01:36;;;;;;;105.25;49.30;;;4.80;99.90;;;;;;5069628;28;20029;-62
2022/11/25 09:04:02;;;;;;;109.10;49.92;;;4.80;99.90;;;;;;5069634;28;20472;-61
2022/11/25 09:06:28;;;;;;;101.80;48.67;;;4.80;99.90;;;;;;5069519;28;20063;-62
2022/11/25 09:08:56;;;;;;;111.90;51.13;;;4.90;99.90;;;;;;5069707;28;20024;-64
2022/11/25 09:11:22;;;;;;;112.85;53.55;;;4.90;99.90;;;;;;5069648;28;20275;-60
2022/11/25 09:13:48;;;;;;;108.53;51.50;;;4.90;99.90;;;;;;5069826;28;20040;-61
2022/11/25 09:16:14;;;;;;;104.90;50.42;;;5.00;99.90;;;;;;5069498;28;20032;-60
2022/11/25 09:18:39;;;;;;;119.43;52.78;;;5.00;99.90;;;;;;5069534;28;20108;-60
2022/11/25 09:21:10;;;;;;;107.85;52.25;;;5.00;99.90;;;;;;5069709;28;20167;-63
2022/11/25 09:23:37;;;;;;;104.30;50.08;;;5.10;99.90;;;;;;5068007;28;20383;-65
2022/11/25 09:26:03;;;;;;;;;;;5.10;99.90;;;;;;5069829;28;20032;-60
2022/11/25 09:28:29;;;;;;;109.22;53.03;;;5.20;99.90;;;;;;5069475;28;19908;-62
2022/11/25 09:30:54;;;;;;;99.05;48.75;;;5.20;99.90;;;;;;5069259;28;20029;-59
2022/11/25 09:33:20;;;;;;;97.68;46.20;;;5.20;99.90;;;;;;5069464;28;20025;-60
2022/11/25 09:35:46;;;;;;;94.30;44.20;;;5.20;99.90;;;;;;5069104;28;20462;-66
2022/11/25 09:38:12;;;;;;;91.93;44.33;;;5.20;99.90;;;;;;5069325;28;20544;-61
2022/11/25 09:41:08;;;;;;;85.72;44.78;;;5.20;99.90;;;;;;5069105;28;20111;-64
2022/11/25 09:47:13;;;;;;;93.75;43.88;;;5.20;99.90;;;;;;5011912;28;20121;-59
2022/11/25 09:50:03;;;;;;;83.18;41.10;;;5.20;99.90;;;;;;5072572;28;20028;-63
2022/11/25 09:52:47;;;;;;;91.78;46.78;;;5.20;99.90;;;;;;5072808;28;20040;-62
2022/11/25 09:55:22;;;;;;;95.22;45.55;;;5.20;99.90;;;;;;5072706;28;20067;-57
2022/11/25 09:58:07;;;;;;;95.38;46.38;;;5.30;99.90;;;;;;5072551;28;20025;-58
2022/11/25 10:00:44;;;;;;;83.78;43.80;;;5.30;99.90;;;;;;5072729;28;20031;-60
2022/11/25 10:03:18;;;;;;;86.25;43.78;;;5.30;99.90;;;;;;5072460;28;20060;-57
2022/11/25 10:06:06;;;;;;;96.22;46.22;;;5.20;99.90;;;;;;5072550;28;20503;-64
2022/11/25 10:08:38;;;;;;;92.83;45.40;;;5.30;99.90;;;;;;5072345;28;20033;-61
2022/11/25 10:11:20;;;;;;;95.55;46.25;;;5.30;99.90;;;;;;5072491;28;20306;-58
2022/11/25 10:14:09;;;;;;;91.05;46.40;;;5.40;99.90;;;;;;5054268;28;20081;-60
2022/11/25 10:16:45;;;;;;;88.47;44.95;;;5.40;99.90;;;;;;5071877;28;20040;-58
2022/11/25 10:19:22;;;;;;;100.38;50.08;;;5.40;99.90;;;;;;5072509;28;20036;-57
2022/11/25 10:21:48;;;;;;;109.38;50.70;;;5.40;99.90;;;;;;5072206;28;20434;-66
2022/11/25 10:24:20;;;;;;;94.97;47.97;;;5.40;99.90;;;;;;5072313;28;20437;-63
2022/11/25 10:26:56;;;;;;;93.35;47.13;;;5.60;99.90;;;;;;5071819;28;20039;-61
2022/11/25 10:29:23;;;;;;;94.45;46.00;;;5.50;99.90;;;;;;5071812;28;20672;-61
2022/11/25 10:31:56;;;;;;;98.45;47.95;;;5.50;99.90;;;;;;5071916;28;20379;-65
2022/11/25 10:34:43;;;;;;;89.80;44.72;;;5.50;99.90;;;;;;5071763;28;20048;-59
2022/11/25 10:37:29;;;;;;;92.35;46.13;;;5.60;99.90;;;;;;5072049;28;20021;-61
2022/11/25 10:39:55;;;;;;;94.97;46.58;;;5.70;99.90;;;;;;5071973;28;20256;-58
2022/11/25 10:42:25;;;;;;;85.72;45.55;;;5.70;99.90;;;;;;5071654;28;20511;-65
2022/11/25 10:44:53;;;;;;;98.18;47.17;;;5.70;99.90;;;;;;5053378;28;20396;-63
2022/11/25 10:47:52;;;;;;;95.03;48.55;;;5.70;99.90;;;;;;5070854;28;20024;-61
2022/11/25 10:51:02;;;;;;;105.75;50.53;;;5.80;99.90;;;;;;5071463;28;20017;-59
2022/11/25 10:53:29;;;;;;;94.53;46.15;;;5.80;99.90;;;;;;5055118;28;20111;-58
2022/11/25 10:56:01;;;;;;;87.28;44.45;;;5.80;99.90;;;;;;5071322;28;20400;-59
2022/11/25 10:58:34;;;;;;;99.53;46.58;;;5.80;99.90;;;;;;5070936;28;20055;-58
2022/11/25 11:01:08;;;;;;;81.43;41.92;;;5.80;99.90;;;;;;5071266;28;20073;-64
2022/11/25 11:03:34;;;;;;;97.82;47.83;;;5.90;99.90;;;;;;5071445;28;20023;-61
2022/11/25 11:06:00;;;;;;;100.72;46.88;;;5.90;99.90;;;;;;5070010;28;20020;-61
2022/11/25 11:08:38;;;;;;;99.13;45.95;;;6.00;99.90;;;;;;5071287;28;20036;-60
2022/11/25 11:11:18;;;;;;;109.07;48.83;;;6.00;99.90;;;;;;5071203;28;20365;-62
2022/11/25 11:13:45;;;;;;;88.45;45.50;;;6.00;99.90;;;;;;5071356;28;20104;-59
2022/11/25 11:16:30;;;;;;;92.13;47.33;;;6.00;99.90;;;;;;5071134;28;20032;-61
2022/11/25 11:18:57;;;;;;;97.70;47.72;;;6.10;99.90;;;;;;5071012;28;20263;-63
2022/11/25 11:21:31;;;;;;;90.10;43.00;;;6.10;99.90;;;;;;5070905;28;20033;-61
2022/11/25 11:23:58;;;;;;;89.03;43.63;;;6.10;99.90;;;;;;5070948;28;20023;-61
2022/11/25 11:26:34;;;;;;;98.75;43.95;;;6.10;99.90;;;;;;5070742;28;20069;-67
2022/11/25 11:29:04;;;;;;;86.80;43.10;;;6.20;99.90;;;;;;5071036;28;20020;-59
2022/11/25 11:31:37;;;;;;;98.57;47.53;;;6.10;99.90;;;;;;5070591;28;20021;-64
2022/11/25 11:34:50;;;;;;;94.00;47.78;;;6.20;99.90;;;;;;5070879;28;20055;-60
2022/11/25 11:37:41;;;;;;;88.38;44.28;;;6.20;99.90;;;;;;5070499;28;20064;-59
2022/11/25 11:40:28;;;;;;;87.55;41.33;;;6.20;99.90;;;;;;5070622;28;20032;-58
2022/11/25 11:43:06;;;;;;;85.30;42.55;;;6.30;99.90;;;;;;5070573;28;20562;-60
2022/11/25 11:45:52;;;;;;;82.55;41.33;;;6.30;99.90;;;;;;5067120;28;20350;-62
2022/11/25 11:48:47;;;;;;;80.57;39.55;;;6.40;99.90;;;;;;5070254;28;20028;-64
2022/11/25 11:51:35;;;;;;;79.55;39.25;;;6.40;99.90;;;;;;5044667;28;20119;-59
2022/11/25 11:54:19;;;;;;;78.25;38.65;;;6.40;99.90;;;;;;5070349;28;20039;-65
2022/11/25 11:56:51;;;;;;;76.00;38.00;;;6.50;99.90;;;;;;5070165;28;20387;-59
2022/11/25 11:59:54;;;;;;;71.70;38.78;;;6.50;99.90;;;;;;5070717;28;20028;-62
2022/11/25 12:02:53;;;;;;;72.72;39.88;;;6.50;99.90;;;;;;5048855;28;20036;-64
2022/11/25 12:05:23;;;;;;;72.00;38.75;;;6.50;99.90;;;;;;5070059;28;20043;-63
2022/11/25 12:08:04;;;;;;;77.13;37.90;;;6.60;99.90;;;;;;5070028;28;20025;-60
2022/11/25 12:10:57;;;;;;;69.35;35.72;;;6.60;99.90;;;;;;5052271;28;20387;-62
2022/11/25 12:13:51;;;;;;;67.53;34.97;;;6.70;99.90;;;;;;5070010;28;20103;-64
2022/11/25 12:16:36;;;;;;;70.07;35.00;;;6.70;99.90;;;;;;5062703;28;20047;-58
2022/11/25 12:19:23;;;;;;;62.75;34.55;;;6.80;99.90;;;;;;5070084;28;20387;-58
2022/11/25 12:22:04;;;;;;;63.97;34.00;;;6.90;99.90;;;;;;5070093;28;20021;-60
2022/11/25 12:24:43;;;;;;;63.83;35.42;;;6.90;99.90;;;;;;5069868;28;20028;-64
2022/11/25 12:27:20;;;;;;;68.90;38.00;;;6.90;99.90;;;;;;5070254;28;20032;-60
2022/11/25 12:29:55;;;;;;;68.30;34.47;;;6.90;99.90;;;;;;5070123;28;20032;-61
2022/11/25 12:32:20;;;;;;;71.85;35.80;;;6.90;99.90;;;;;;5051900;28;20028;-62
2022/11/25 12:34:57;;;;;;;68.68;35.28;;;6.80;99.90;;;;;;5069627;28;20048;-59
2022/11/25 12:37:38;;;;;;;64.97;32.42;;;6.80;99.90;;;;;;5052005;28;20063;-61
2022/11/25 12:40:15;;;;;;;64.43;32.47;;;6.80;99.90;;;;;;5052162;28;20468;-59
2022/11/25 12:42:42;;;;;;;70.68;36.58;;;6.90;99.90;;;;;;5070090;28;20035;-59
2022/11/25 12:45:24;;;;;;;80.15;37.08;;;6.90;99.90;;;;;;5052129;28;20063;-61
2022/11/25 12:47:51;;;;;;;69.18;35.65;;;6.90;99.90;;;;;;5068436;28;20052;-59
2022/11/25 12:50:32;;;;;;;65.22;36.03;;;7.00;99.90;;;;;;5069825;28;20029;-60